createdAt,value
2023-06-12T00:01:57.346Z,49.60
2023-06-12T00:05:00.945Z,50.10
2023-06-12T00:08:06.788Z,49.80
2023-06-12T00:11:13.382Z,49.90
2023-06-12T00:14:16.532Z,49.80
2023-06-12T00:17:20.940Z,49.60
2023-06-12T00:20:24.137Z,49.50
2023-06-12T00:23:27.269Z,50.30
2023-06-12T00:26:30.342Z,50.10
2023-06-12T00:29:33.361Z,50.50
2023-06-12T00:32:38.084Z,50.00
2023-06-12T00:35:41.247Z,49.60
2023-06-12T00:38:44.371Z,49.70
2023-06-12T00:41:47.363Z,50.00
2023-06-12T00:44:50.340Z,49.70
2023-06-12T00:47:57.651Z,49.90
2023-06-12T00:51:03.029Z,49.60
2023-06-12T00:54:06.328Z,49.80
2023-06-12T00:57:09.445Z,48.90
2023-06-12T01:00:15.510Z,49.30
2023-06-12T01:03:23.198Z,49.10
2023-06-12T01:06:33.625Z,48.90
2023-06-12T01:09:45.479Z,49.10
2023-06-12T01:12:50.250Z,49.00
2023-06-12T01:15:53.306Z,48.90
2023-06-12T01:18:58.410Z,49.10
2023-06-12T01:22:09.829Z,48.50
2023-06-12T01:25:33.211Z,48.50
2023-06-12T01:29:18.171Z,48.70
2023-06-12T01:32:25.203Z,49.10
2023-06-12T01:35:31.514Z,49.00
2023-06-12T01:38:38.004Z,48.40
2023-06-12T01:41:41.712Z,48.20
2023-06-12T01:44:44.783Z,48.70
2023-06-12T01:47:49.253Z,47.80
2023-06-12T01:50:52.283Z,48.20
2023-06-12T01:53:55.608Z,47.40
2023-06-12T01:56:59.324Z,47.60
2023-06-12T02:00:05.599Z,47.60
2023-06-12T02:03:11.366Z,47.80
2023-06-12T02:06:15.170Z,47.90
2023-06-12T02:09:20.099Z,47.20
2023-06-12T02:12:23.170Z,46.70
2023-06-12T02:15:26.303Z,47.80
2023-06-12T02:18:31.335Z,47.60
2023-06-12T02:21:34.401Z,47.20
2023-06-12T02:24:38.430Z,47.50
2023-06-12T02:27:42.381Z,47.60
2023-06-12T02:30:45.495Z,48.10
2023-06-12T02:33:50.163Z,47.50
2023-06-12T02:36:53.254Z,47.70
2023-06-12T02:39:56.194Z,47.90
2023-06-12T02:42:59.370Z,48.00
2023-06-12T02:46:02.512Z,48.60
2023-06-12T02:49:07.116Z,48.70
2023-06-12T02:52:10.139Z,48.60
2023-06-12T02:55:13.461Z,48.80
2023-06-12T02:58:16.435Z,49.20
2023-06-12T03:01:21.488Z,49.30
2023-06-12T03:04:26.059Z,49.10
2023-06-12T03:07:29.836Z,49.30
2023-06-12T03:10:33.210Z,49.40
2023-06-12T03:13:37.207Z,49.50
2023-06-12T03:16:40.494Z,49.50
2023-06-12T03:19:46.076Z,49.60
2023-06-12T03:22:49.362Z,49.70
2023-06-12T03:25:53.504Z,49.50
2023-06-12T03:28:56.547Z,49.70
2023-06-12T03:31:59.852Z,49.70
2023-06-12T03:35:04.393Z,49.70
2023-06-12T03:38:07.450Z,49.90
2023-06-12T03:41:10.481Z,49.70
2023-06-12T03:44:13.575Z,49.60
2023-06-12T03:47:17.078Z,49.80
2023-06-12T03:50:23.335Z,49.50
2023-06-12T03:53:26.844Z,49.30
2023-06-12T03:56:30.058Z,49.60
2023-06-12T03:59:33.209Z,49.40
2023-06-12T04:02:37.701Z,49.20
2023-06-12T04:05:42.391Z,49.30
2023-06-12T04:08:46.186Z,49.20
2023-06-12T04:11:49.256Z,49.70
2023-06-12T04:14:52.309Z,49.30
2023-06-12T04:17:56.278Z,49.20
2023-06-12T04:21:01.486Z,49.00
2023-06-12T04:24:06.888Z,49.30
2023-06-12T04:27:11.142Z,49.50
2023-06-12T04:30:16.464Z,49.30
2023-06-12T04:33:20.141Z,49.40
2023-06-12T04:36:24.940Z,48.90
2023-06-12T04:39:30.532Z,48.70
2023-06-12T04:42:33.914Z,48.50
2023-06-12T04:45:37.621Z,48.90
2023-06-12T04:48:42.985Z,48.40
2023-06-12T04:51:49.733Z,48.40
2023-06-12T04:54:53.260Z,48.40
2023-06-12T04:57:56.511Z,48.40
2023-06-12T05:01:02.059Z,47.70
2023-06-12T05:04:05.432Z,47.60
2023-06-12T05:07:18.153Z,47.10
2023-06-12T05:10:22.211Z,47.20
2023-06-12T05:13:25.252Z,46.70
2023-06-12T05:16:30.120Z,46.00
2023-06-12T05:19:33.318Z,45.70
2023-06-12T05:22:38.289Z,45.70
2023-06-12T05:25:41.301Z,44.60
2023-06-12T05:28:44.716Z,45.00
2023-06-12T05:31:47.722Z,44.30
2023-06-12T05:34:51.027Z,43.90
2023-06-12T05:37:55.658Z,44.00
2023-06-12T05:40:59.712Z,43.70
2023-06-12T05:44:04.731Z,43.40
2023-06-12T05:47:10.981Z,43.20
2023-06-12T05:50:14.571Z,42.60
2023-06-12T05:53:19.413Z,43.00
2023-06-12T05:56:23.522Z,41.80
2023-06-12T05:59:26.553Z,42.20
2023-06-12T06:02:30.374Z,42.20
2023-06-12T06:05:33.971Z,42.00
2023-06-12T06:08:39.365Z,41.30
2023-06-12T06:11:42.407Z,40.90
2023-06-12T06:14:45.646Z,41.50
2023-06-12T06:17:48.676Z,41.20
2023-06-12T06:20:53.622Z,41.10
2023-06-12T06:23:58.169Z,41.50
2023-06-12T06:27:01.293Z,40.60
2023-06-12T06:30:05.185Z,40.40
2023-06-12T06:33:08.323Z,40.70
2023-06-12T06:36:11.551Z,40.80
2023-06-12T06:39:15.963Z,40.70
2023-06-12T06:42:19.095Z,41.20
2023-06-12T06:45:22.169Z,40.20
2023-06-12T06:48:25.222Z,40.20
2023-06-12T06:51:28.332Z,39.60
2023-06-12T06:54:32.943Z,39.50
2023-06-12T06:57:38.339Z,39.90
2023-06-12T07:00:41.615Z,39.90
2023-06-12T07:03:44.729Z,39.70
2023-06-12T07:06:47.819Z,40.00
2023-06-12T07:09:52.270Z,39.90
2023-06-12T07:12:57.976Z,39.90
2023-06-12T07:16:02.317Z,39.70
2023-06-12T07:19:05.848Z,40.70
2023-06-12T07:22:08.969Z,40.00
2023-06-12T07:25:13.975Z,39.80
2023-06-12T07:28:19.925Z,40.00
2023-06-12T07:31:22.912Z,40.40
2023-06-12T07:34:25.993Z,39.80
2023-06-12T07:37:37.020Z,40.80
2023-06-12T07:40:41.646Z,39.70
2023-06-12T07:43:44.703Z,40.10
2023-06-12T07:46:48.105Z,39.90
2023-06-12T07:49:51.353Z,40.20
2023-06-12T07:52:54.611Z,41.10
2023-06-12T07:55:59.086Z,39.70
2023-06-12T07:59:08.374Z,39.40
2023-06-12T08:02:11.911Z,40.70
2023-06-12T08:05:15.315Z,40.80
2023-06-12T08:08:19.086Z,40.50
2023-06-12T08:11:23.547Z,40.70
2023-06-12T08:14:26.848Z,40.70
2023-06-12T08:17:31.097Z,40.20
2023-06-12T08:20:34.216Z,38.60
2023-06-12T08:23:40.142Z,39.30
2023-06-12T08:26:44.641Z,39.00
2023-06-12T08:29:47.926Z,38.60
2023-06-12T08:32:51.028Z,38.60
2023-06-12T08:35:54.241Z,39.20
2023-06-12T08:38:57.570Z,39.60
2023-06-12T08:42:06.632Z,38.50
2023-06-12T08:45:21.424Z,38.70
2023-06-12T08:48:29.987Z,37.90
2023-06-12T08:51:34.278Z,37.60
2023-06-12T08:54:38.702Z,38.00
2023-06-12T08:57:43.475Z,39.00
2023-06-12T09:00:46.966Z,38.90
2023-06-12T09:03:55.286Z,38.50
2023-06-12T09:07:02.669Z,38.20
2023-06-12T09:10:14.388Z,38.60
2023-06-12T09:13:19.825Z,39.00
2023-06-12T09:16:23.172Z,39.00
2023-06-12T09:19:26.578Z,38.60
2023-06-12T09:22:30.367Z,38.90
2023-06-12T09:25:36.879Z,38.90
2023-06-12T09:28:44.144Z,39.40
2023-06-12T09:31:52.904Z,39.10
2023-06-12T09:34:57.274Z,38.80
2023-06-12T09:38:01.511Z,39.20
2023-06-12T09:41:06.250Z,40.10
2023-06-12T09:44:10.632Z,39.30
2023-06-12T09:47:14.309Z,39.30
2023-06-12T09:50:18.423Z,39.60
2023-06-12T09:53:23.712Z,40.00
2023-06-12T09:56:28.234Z,39.50
2023-06-12T09:59:37.686Z,39.80
2023-06-12T10:02:43.418Z,40.20
2023-06-12T10:05:52.307Z,40.40
2023-06-12T10:08:56.458Z,40.50
2023-06-12T10:12:04.214Z,40.20
2023-06-12T10:15:10.527Z,41.40
2023-06-12T10:18:14.246Z,40.90
2023-06-12T10:21:17.886Z,41.00
2023-06-12T10:24:21.950Z,41.10
2023-06-12T10:27:26.113Z,40.90
2023-06-12T10:30:30.691Z,41.50
2023-06-12T10:33:33.950Z,41.40
2023-06-12T10:36:42.290Z,41.30
2023-06-12T10:39:48.819Z,41.10
2023-06-12T10:43:02.399Z,41.00
2023-06-12T10:46:14.036Z,40.90
2023-06-12T10:49:19.291Z,41.60
2023-06-12T10:52:24.320Z,41.50
2023-06-12T10:55:33.447Z,41.60
2023-06-12T10:58:40.276Z,41.10
2023-06-12T11:01:46.539Z,40.80
2023-06-12T11:04:50.829Z,40.90
2023-06-12T11:07:56.900Z,41.60
2023-06-12T11:11:00.523Z,41.20
2023-06-12T11:14:03.751Z,41.00
2023-06-12T11:17:08.866Z,40.50
2023-06-12T11:20:13.008Z,40.80
2023-06-12T11:23:17.226Z,41.20
2023-06-12T11:26:21.507Z,40.50
2023-06-12T11:29:26.637Z,40.40
2023-06-12T11:32:32.298Z,40.80
2023-06-12T11:35:40.238Z,41.20
2023-06-12T11:41:52.214Z,40.70
2023-06-12T11:44:56.540Z,40.10
2023-06-12T11:51:09.256Z,39.20
2023-06-12T11:54:16.843Z,39.70
2023-06-12T11:57:19.987Z,39.30
2023-06-12T12:00:24.138Z,39.20
2023-06-12T12:03:28.590Z,39.20
2023-06-12T12:06:32.401Z,39.50
2023-06-12T12:09:35.522Z,38.70
2023-06-12T12:12:43.251Z,39.00
2023-06-12T12:15:46.837Z,39.20
2023-06-12T12:18:53.231Z,38.70
2023-06-12T12:21:57.416Z,38.70
2023-06-12T12:25:01.581Z,38.70
2023-06-12T12:28:05.047Z,39.20
2023-06-12T12:31:08.327Z,39.30
2023-06-12T12:34:12.976Z,38.70
2023-06-12T12:37:15.974Z,39.50
2023-06-12T12:40:20.050Z,39.10
2023-06-12T12:43:23.190Z,38.20
2023-06-12T12:46:27.980Z,38.20
2023-06-12T12:49:37.251Z,38.20
2023-06-12T12:52:42.742Z,38.40
2023-06-12T12:55:45.725Z,38.20
2023-06-12T12:58:48.813Z,38.50
2023-06-12T13:01:51.982Z,38.30
2023-06-12T13:04:56.451Z,37.80
2023-06-12T13:07:59.571Z,38.00
2023-06-12T13:11:02.772Z,38.10
2023-06-12T13:14:06.180Z,38.10
2023-06-12T13:17:10.003Z,38.20
2023-06-12T13:20:15.559Z,38.20
2023-06-12T13:23:18.909Z,38.00
2023-06-12T13:26:22.281Z,38.00
2023-06-12T13:29:25.380Z,37.70
2023-06-12T13:32:28.509Z,37.60
2023-06-12T13:35:32.923Z,37.10
2023-06-12T13:38:36.598Z,37.20
2023-06-12T13:41:39.693Z,37.00
2023-06-12T13:44:42.845Z,37.70
2023-06-12T13:47:47.428Z,37.50
2023-06-12T13:50:52.203Z,37.20
2023-06-12T13:53:55.630Z,37.50
2023-06-12T13:56:58.784Z,37.40
2023-06-12T14:00:01.904Z,37.00
2023-06-12T14:03:05.395Z,36.80
2023-06-12T14:06:10.254Z,37.00
2023-06-12T14:09:13.337Z,37.10
2023-06-12T14:12:16.425Z,37.30
2023-06-12T14:15:20.123Z,37.20
2023-06-12T14:18:23.301Z,37.20
2023-06-12T14:21:28.572Z,37.20
2023-06-12T14:24:37.690Z,37.20
2023-06-12T14:27:43.417Z,37.30
2023-06-12T14:30:46.790Z,37.80
2023-06-12T14:33:49.873Z,37.50
2023-06-12T14:36:54.313Z,38.00
2023-06-12T14:39:57.357Z,38.20
2023-06-12T14:43:00.311Z,38.00
2023-06-12T14:46:03.532Z,38.00
2023-06-12T14:49:06.579Z,37.80
2023-06-12T14:52:23.932Z,37.70
2023-06-12T14:55:33.982Z,37.60
2023-06-12T14:58:37.103Z,37.30
2023-06-12T15:01:40.238Z,37.80
2023-06-12T15:04:43.416Z,38.00
2023-06-12T15:07:49.544Z,37.90
2023-06-12T15:10:52.692Z,37.70
2023-06-12T15:13:55.848Z,37.60
2023-06-12T15:16:58.850Z,37.70
2023-06-12T15:20:03.555Z,37.70
2023-06-12T15:23:07.966Z,37.80
2023-06-12T15:26:10.954Z,37.50
2023-06-12T15:29:14.381Z,38.10
2023-06-12T15:32:20.543Z,37.30
2023-06-12T15:35:23.612Z,37.30
2023-06-12T15:38:39.555Z,37.30
2023-06-12T15:41:42.939Z,37.10
2023-06-12T15:44:46.653Z,37.40
2023-06-12T15:47:50.068Z,37.50
2023-06-12T15:50:53.261Z,37.40
2023-06-12T15:53:57.759Z,37.80
2023-06-12T15:57:07.096Z,37.30
2023-06-12T16:00:11.131Z,36.70
2023-06-12T16:03:14.581Z,37.00
2023-06-12T16:06:18.168Z,36.80
2023-06-12T16:09:22.987Z,37.10
2023-06-12T16:12:26.044Z,37.30
2023-06-12T16:15:29.315Z,37.10
2023-06-12T16:18:32.328Z,37.50
2023-06-12T16:21:35.791Z,37.70
2023-06-12T16:24:40.249Z,37.50
2023-06-12T16:27:48.872Z,37.50
2023-06-12T16:30:51.981Z,37.80
2023-06-12T16:33:55.082Z,37.80
2023-06-12T16:36:58.135Z,37.50
2023-06-12T16:40:09.874Z,37.60
2023-06-12T16:43:13.478Z,37.90
2023-06-12T16:46:19.088Z,37.60
2023-06-12T16:49:24.118Z,37.90
2023-06-12T16:52:28.078Z,37.80
2023-06-12T16:55:32.536Z,38.30
2023-06-12T16:58:35.630Z,38.20
2023-06-12T17:01:39.132Z,38.20
2023-06-12T17:04:43.045Z,38.20
2023-06-12T17:07:46.578Z,38.50
2023-06-12T17:10:51.077Z,38.70
2023-06-12T17:13:54.314Z,38.60
2023-06-12T17:16:57.340Z,38.60
2023-06-12T17:20:00.561Z,38.70
2023-06-12T17:23:03.672Z,38.60
2023-06-12T17:26:08.241Z,38.70
2023-06-12T17:29:11.208Z,38.40
2023-06-12T17:32:15.815Z,38.70
2023-06-12T17:35:19.142Z,38.60
2023-06-12T17:38:22.481Z,38.60
2023-06-12T17:41:27.816Z,38.60
2023-06-12T17:44:31.088Z,38.80
2023-06-12T17:47:34.405Z,39.20
2023-06-12T17:50:37.721Z,39.30
2023-06-12T17:53:42.919Z,39.30
2023-06-12T17:56:49.581Z,39.40
2023-06-12T17:59:52.705Z,39.40
2023-06-12T18:02:56.235Z,39.70
2023-06-12T18:05:59.452Z,39.70
2023-06-12T18:09:02.553Z,39.80
2023-06-12T18:12:08.260Z,40.20
2023-06-12T18:15:11.899Z,40.10
2023-06-12T18:18:18.084Z,40.20
2023-06-12T18:21:21.229Z,40.30
2023-06-12T18:24:24.706Z,40.60
2023-06-12T18:27:31.587Z,40.70
2023-06-12T18:30:36.799Z,40.70
2023-06-12T18:33:40.062Z,40.90
2023-06-12T18:36:43.277Z,40.50
2023-06-12T18:39:49.396Z,40.50
2023-06-12T18:42:53.796Z,40.50
2023-06-12T18:45:56.987Z,40.50
2023-06-12T18:49:00.176Z,40.70
2023-06-12T18:52:03.476Z,40.70
2023-06-12T18:55:07.418Z,41.10
2023-06-12T18:58:11.879Z,41.00
2023-06-12T19:01:14.929Z,41.20
2023-06-12T19:04:18.225Z,41.20
2023-06-12T19:07:21.456Z,41.20
2023-06-12T19:10:27.479Z,41.40
2023-06-12T19:13:32.689Z,41.80
2023-06-12T19:16:35.936Z,41.80
2023-06-12T19:19:39.640Z,42.00
2023-06-12T19:22:42.705Z,42.30
2023-06-12T19:25:47.646Z,42.20
2023-06-12T19:28:53.833Z,42.40
2023-06-12T19:31:56.917Z,42.90
2023-06-12T19:34:59.985Z,43.00
2023-06-12T19:38:02.999Z,43.20
2023-06-12T19:41:06.095Z,43.50
2023-06-12T19:44:10.785Z,43.60
2023-06-12T19:47:13.858Z,43.70
2023-06-12T19:50:16.866Z,43.80
2023-06-12T19:53:20.755Z,44.10
2023-06-12T19:56:23.960Z,44.00
2023-06-12T19:59:28.409Z,44.00
2023-06-12T20:02:31.859Z,44.20
2023-06-12T20:05:36.796Z,44.30
2023-06-12T20:08:39.922Z,44.90
2023-06-12T20:11:42.940Z,44.70
2023-06-12T20:14:48.820Z,44.80
2023-06-12T20:17:52.434Z,45.00
2023-06-12T20:20:55.386Z,45.00
2023-06-12T20:23:58.564Z,44.80
2023-06-12T20:27:05.963Z,44.70
2023-06-12T20:30:11.981Z,44.70
2023-06-12T20:33:15.321Z,44.60
2023-06-12T20:36:18.644Z,44.70
2023-06-12T20:39:21.643Z,44.50
2023-06-12T20:42:24.750Z,44.60
2023-06-12T20:45:29.321Z,44.70
2023-06-12T20:48:33.965Z,44.90
2023-06-12T20:51:38.077Z,44.90
2023-06-12T20:54:41.157Z,44.90
2023-06-12T20:57:44.258Z,45.10
2023-06-12T21:00:50.664Z,45.20
2023-06-12T21:03:54.406Z,45.30
2023-06-12T21:06:57.465Z,45.50
2023-06-12T21:10:00.543Z,45.50
2023-06-12T21:13:04.730Z,45.50
2023-06-12T21:16:11.757Z,45.60
2023-06-12T21:19:14.872Z,45.40
2023-06-12T21:22:19.990Z,45.50
2023-06-12T21:25:22.980Z,45.50
2023-06-12T21:28:26.115Z,45.60
2023-06-12T21:31:31.324Z,45.50
2023-06-12T21:34:35.011Z,45.80
2023-06-12T21:37:38.076Z,45.90
2023-06-12T21:40:41.454Z,46.40
2023-06-12T21:43:44.548Z,46.10
2023-06-12T21:46:48.927Z,46.00
2023-06-12T21:49:52.442Z,45.90
2023-06-12T21:52:55.437Z,46.00
2023-06-12T21:55:58.795Z,46.10
2023-06-12T21:59:01.926Z,46.40
2023-06-12T22:02:07.444Z,46.40
2023-06-12T22:05:11.385Z,46.40
2023-06-12T22:08:14.680Z,46.70
2023-06-12T22:11:17.731Z,46.50
2023-06-12T22:14:20.835Z,46.60
2023-06-12T22:17:25.410Z,46.70
2023-06-12T22:20:28.582Z,46.80
2023-06-12T22:23:31.640Z,46.90
2023-06-12T22:26:34.844Z,46.70
2023-06-12T22:29:38.386Z,46.80
2023-06-12T22:32:42.795Z,47.10
2023-06-12T22:35:46.428Z,47.10
2023-06-12T22:38:49.552Z,47.20
2023-06-12T22:41:52.751Z,47.20
2023-06-12T22:44:55.996Z,47.50
2023-06-12T22:48:01.350Z,47.50
2023-06-12T22:51:06.457Z,47.60
2023-06-12T22:54:09.672Z,47.70
2023-06-12T22:57:13.772Z,47.80
2023-06-12T23:00:18.392Z,48.00
2023-06-12T23:03:22.723Z,48.00
2023-06-12T23:06:27.916Z,48.00
2023-06-12T23:09:31.220Z,47.90
2023-06-12T23:12:34.448Z,47.90
2023-06-12T23:15:37.785Z,48.00
2023-06-12T23:18:42.845Z,48.00
2023-06-12T23:21:45.858Z,48.00
2023-06-12T23:24:52.557Z,48.20
2023-06-12T23:27:58.968Z,48.20
2023-06-12T23:31:04.321Z,48.40
2023-06-12T23:34:08.939Z,48.40
2023-06-12T23:37:12.604Z,48.40
2023-06-12T23:40:16.249Z,48.60
2023-06-12T23:43:19.604Z,48.60
2023-06-12T23:46:22.582Z,48.50
2023-06-12T23:49:30.896Z,48.70
2023-06-12T23:52:33.897Z,48.60
2023-06-12T23:55:36.915Z,48.70
2023-06-12T23:58:40.035Z,48.80
